sensor_id;sensor_type;location;lat;lon;timestamp;pressure;altitude;pressure_sealevel;temperature;humidity
15308;BME280;7755;52.208;6.964;2023-08-07T00:03:54;100576.00;;;15.37;100.00
15308;BME280;7755;52.208;6.964;2023-08-07T00:07:59;100581.22;;;15.33;100.00
15308;BME280;7755;52.208;6.964;2023-08-07T00:12:02;100574.94;;;15.33;100.00
15308;BME280;7755;52.208;6.964;2023-08-07T00:16:05;100575.75;;;15.33;100.00
15308;BME280;7755;52.208;6.964;2023-08-07T00:20:08;100576.84;;;15.32;100.00
15308;BME280;7755;52.208;6.964;2023-08-07T00:24:13;100582.03;;;15.28;100.00
15308;BME280;7755;52.208;6.964;2023-08-07T00:28:16;100582.59;;;15.25;100.00
15308;BME280;7755;52.208;6.964;2023-08-07T00:32:19;100581.22;;;15.28;100.00
15308;BME280;7755;52.208;6.964;2023-08-07T00:36:22;100570.00;;;15.24;100.00
15308;BME280;7755;52.208;6.964;2023-08-07T00:40:26;100580.66;;;15.16;100.00
15308;BME280;7755;52.208;6.964;2023-08-07T00:44:29;100572.75;;;15.14;100.00
15308;BME280;7755;52.208;6.964;2023-08-07T00:48:34;100583.69;;;15.09;100.00
15308;BME280;7755;52.208;6.964;2023-08-07T00:52:37;100593.25;;;15.17;100.00
15308;BME280;7755;52.208;6.964;2023-08-07T00:56:43;100594.66;;;15.19;100.00
15308;BME280;7755;52.208;6.964;2023-08-07T01:00:51;100591.09;;;15.14;100.00
15308;BME280;7755;52.208;6.964;2023-08-07T01:04:54;100591.66;;;15.11;100.00
15308;BME280;7755;52.208;6.964;2023-08-07T01:08:57;100598.47;;;15.13;100.00
15308;BME280;7755;52.208;6.964;2023-08-07T01:13:06;100599.31;;;15.14;100.00
15308;BME280;7755;52.208;6.964;2023-08-07T01:17:15;100598.75;;;15.17;100.00
15308;BME280;7755;52.208;6.964;2023-08-07T01:21:19;100603.41;;;15.16;100.00
15308;BME280;7755;52.208;6.964;2023-08-07T01:25:23;100595.47;;;15.15;100.00
15308;BME280;7755;52.208;6.964;2023-08-07T01:29:33;100597.66;;;15.18;100.00
15308;BME280;7755;52.208;6.964;2023-08-07T01:33:43;100598.22;;;15.20;100.00
15308;BME280;7755;52.208;6.964;2023-08-07T01:37:55;100609.16;;;15.20;100.00
15308;BME280;7755;52.208;6.964;2023-08-07T01:42:02;100602.88;;;15.24;100.00
15308;BME280;7755;52.208;6.964;2023-08-07T01:46:07;100600.94;;;15.30;100.00
15308;BME280;7755;52.208;6.964;2023-08-07T01:50:11;100605.06;;;15.33;100.00
15308;BME280;7755;52.208;6.964;2023-08-07T01:54:15;100599.00;;;15.30;100.00
15308;BME280;7755;52.208;6.964;2023-08-07T01:58:19;100606.16;;;15.32;100.00
15308;BME280;7755;52.208;6.964;2023-08-07T02:02:23;100609.16;;;15.30;100.00
15308;BME280;7755;52.208;6.964;2023-08-07T02:06:26;100606.16;;;15.26;100.00
15308;BME280;7755;52.208;6.964;2023-08-07T02:10:29;100604.50;;;15.25;100.00
15308;BME280;7755;52.208;6.964;2023-08-07T02:14:33;100614.91;;;15.23;100.00
15308;BME280;7755;52.208;6.964;2023-08-07T02:18:36;100617.09;;;15.21;100.00
15308;BME280;7755;52.208;6.964;2023-08-07T02:22:39;100613.84;;;15.24;100.00
15308;BME280;7755;52.208;6.964;2023-08-07T02:26:42;100610.25;;;15.19;100.00
15308;BME280;7755;52.208;6.964;2023-08-07T02:30:46;100604.22;;;15.17;100.00
15308;BME280;7755;52.208;6.964;2023-08-07T02:34:50;100613.28;;;15.17;100.00
15308;BME280;7755;52.208;6.964;2023-08-07T02:38:53;100626.69;;;15.14;100.00
15308;BME280;7755;52.208;6.964;2023-08-07T02:42:56;100621.78;;;15.11;100.00
15308;BME280;7755;52.208;6.964;2023-08-07T02:47:00;100628.31;;;15.10;100.00
15308;BME280;7755;52.208;6.964;2023-08-07T02:51:06;100626.69;;;15.09;100.00
15308;BME280;7755;52.208;6.964;2023-08-07T02:55:15;100627.50;;;15.04;100.00
15308;BME280;7755;52.208;6.964;2023-08-07T02:59:21;100632.13;;;15.03;100.00
15308;BME280;7755;52.208;6.964;2023-08-07T03:03:26;100629.13;;;14.95;100.00
15308;BME280;7755;52.208;6.964;2023-08-07T03:07:29;100620.63;;;14.96;100.00
15308;BME280;7755;52.208;6.964;2023-08-07T03:11:32;100627.19;;;14.95;100.00
15308;BME280;7755;52.208;6.964;2023-08-07T03:15:36;100620.38;;;14.98;100.00
15308;BME280;7755;52.208;6.964;2023-08-07T03:19:42;100625.56;;;14.94;100.00
15308;BME280;7755;52.208;6.964;2023-08-07T03:23:46;100618.72;;;14.92;100.00
15308;BME280;7755;52.208;6.964;2023-08-07T03:27:49;100624.47;;;14.95;100.00
15308;BME280;7755;52.208;6.964;2023-08-07T03:31:52;100620.09;;;14.94;100.00
15308;BME280;7755;52.208;6.964;2023-08-07T03:35:57;100621.44;;;14.97;100.00
15308;BME280;7755;52.208;6.964;2023-08-07T03:40:01;100617.34;;;14.89;100.00
15308;BME280;7755;52.208;6.964;2023-08-07T03:44:05;100626.38;;;14.80;100.00
15308;BME280;7755;52.208;6.964;2023-08-07T03:48:09;100612.91;;;14.68;100.00
15308;BME280;7755;52.208;6.964;2023-08-07T03:52:13;100622.78;;;14.64;100.00
15308;BME280;7755;52.208;6.964;2023-08-07T03:56:32;100630.16;;;14.58;100.00
15308;BME280;7755;52.208;6.964;2023-08-07T04:01:05;100624.41;;;14.60;100.00
15308;BME280;7755;52.208;6.964;2023-08-07T04:05:09;100627.94;;;14.55;100.00
15308;BME280;7755;52.208;6.964;2023-08-07T04:09:14;100619.72;;;14.50;100.00
15308;BME280;7755;52.208;6.964;2023-08-07T04:13:19;100620.53;;;14.51;100.00
15308;BME280;7755;52.208;6.964;2023-08-07T04:17:22;100626.28;;;14.54;100.00
15308;BME280;7755;52.208;6.964;2023-08-07T04:21:25;100620.53;;;14.56;100.00
15308;BME280;7755;52.208;6.964;2023-08-07T04:25:30;100620.53;;;14.51;100.00
15308;BME280;7755;52.208;6.964;2023-08-07T04:29:37;100630.94;;;14.54;100.00
15308;BME280;7755;52.208;6.964;2023-08-07T04:33:41;100620.28;;;14.52;100.00
15308;BME280;7755;52.208;6.964;2023-08-07T04:37:45;100632.84;;;14.53;100.00
15308;BME280;7755;52.208;6.964;2023-08-07T04:42:02;100627.94;;;14.60;100.00
15308;BME280;7755;52.208;6.964;2023-08-07T04:46:18;100634.78;;;14.63;100.00
15308;BME280;7755;52.208;6.964;2023-08-07T04:50:36;100635.06;;;14.61;100.00
15308;BME280;7755;52.208;6.964;2023-08-07T04:54:53;100634.53;;;14.64;100.00
15308;BME280;7755;52.208;6.964;2023-08-07T04:59:18;100639.19;;;14.69;100.00
15308;BME280;7755;52.208;6.964;2023-08-07T05:03:21;100638.66;;;14.72;100.00
15308;BME280;7755;52.208;6.964;2023-08-07T05:07:24;100644.16;;;14.77;100.00
15308;BME280;7755;52.208;6.964;2023-08-07T05:11:30;100639.50;;;14.83;100.00
15308;BME280;7755;52.208;6.964;2023-08-07T05:15:35;100643.91;;;14.89;100.00
15308;BME280;7755;52.208;6.964;2023-08-07T05:19:38;100646.66;;;14.94;100.00
15308;BME280;7755;52.208;6.964;2023-08-07T05:23:41;100654.84;;;14.94;100.00
15308;BME280;7755;52.208;6.964;2023-08-07T05:27:45;100648.81;;;14.97;100.00
15308;BME280;7755;52.208;6.964;2023-08-07T05:31:51;100657.63;;;14.99;100.00
15308;BME280;7755;52.208;6.964;2023-08-07T05:35:54;100658.41;;;14.94;100.00
15308;BME280;7755;52.208;6.964;2023-08-07T05:39:59;100664.19;;;15.03;100.00
15308;BME280;7755;52.208;6.964;2023-08-07T05:44:07;100677.34;;;15.06;100.00
15308;BME280;7755;52.208;6.964;2023-08-07T05:48:18;100686.66;;;15.05;100.00
15308;BME280;7755;52.208;6.964;2023-08-07T05:52:21;100682.00;;;15.11;100.00
15308;BME280;7755;52.208;6.964;2023-08-07T05:56:24;100681.47;;;15.19;100.00
15308;BME280;7755;52.208;6.964;2023-08-07T06:00:35;100683.94;;;15.25;100.00
15308;BME280;7755;52.208;6.964;2023-08-07T06:04:42;100687.53;;;15.31;100.00
15308;BME280;7755;52.208;6.964;2023-08-07T06:08:46;100692.16;;;15.36;100.00
15308;BME280;7755;52.208;6.964;2023-08-07T06:12:49;100689.44;;;15.46;100.00
15308;BME280;7755;52.208;6.964;2023-08-07T06:16:58;100698.75;;;15.45;100.00
15308;BME280;7755;52.208;6.964;2023-08-07T06:21:04;100704.78;;;15.47;100.00
15308;BME280;7755;52.208;6.964;2023-08-07T06:25:08;100715.75;;;15.52;100.00
15308;BME280;7755;52.208;6.964;2023-08-07T06:29:12;100719.06;;;15.59;100.00
15308;BME280;7755;52.208;6.964;2023-08-07T06:33:16;100722.91;;;15.68;100.00
15308;BME280;7755;52.208;6.964;2023-08-07T06:37:26;100724.03;;;15.72;100.00
15308;BME280;7755;52.208;6.964;2023-08-07T06:41:43;100738.25;;;15.74;100.00
15308;BME280;7755;52.208;6.964;2023-08-07T06:46:05;100745.69;;;15.79;100.00
15308;BME280;7755;52.208;6.964;2023-08-07T06:50:15;100739.91;;;15.75;100.00
15308;BME280;7755;52.208;6.964;2023-08-07T06:54:19;100751.13;;;15.64;100.00
15308;BME280;7755;52.208;6.964;2023-08-07T06:58:22;100755.25;;;15.66;100.00
15308;BME280;7755;52.208;6.964;2023-08-07T07:02:26;100768.69;;;15.68;100.00
15308;BME280;7755;52.208;6.964;2023-08-07T07:06:28;100763.75;;;15.75;100.00
15308;BME280;7755;52.208;6.964;2023-08-07T07:10:33;100763.75;;;16.16;100.00
15308;BME280;7755;52.208;6.964;2023-08-07T07:14:36;100772.75;;;16.31;100.00
15308;BME280;7755;52.208;6.964;2023-08-07T07:18:40;100779.06;;;16.42;100.00
15308;BME280;7755;52.208;6.964;2023-08-07T07:22:43;100791.44;;;16.40;100.00
15308;BME280;7755;52.208;6.964;2023-08-07T07:26:48;100793.59;;;16.37;100.00
15308;BME280;7755;52.208;6.964;2023-08-07T07:30:53;100785.91;;;16.55;100.00
15308;BME280;7755;52.208;6.964;2023-08-07T07:34:58;100775.44;;;16.72;100.00
15308;BME280;7755;52.208;6.964;2023-08-07T07:39:01;100817.97;;;16.64;100.00
15308;BME280;7755;52.208;6.964;2023-08-07T07:43:06;100808.44;;;16.42;100.00
15308;BME280;7755;52.208;6.964;2023-08-07T07:47:09;100817.22;;;16.18;100.00
15308;BME280;7755;52.208;6.964;2023-08-07T07:51:16;100821.91;;;16.13;100.00
15308;BME280;7755;52.208;6.964;2023-08-07T07:55:24;100820.47;;;16.51;100.00
15308;BME280;7755;52.208;6.964;2023-08-07T07:59:29;100828.94;;;16.80;100.00
15308;BME280;7755;52.208;6.964;2023-08-07T08:03:32;100840.72;;;17.01;100.00
15308;BME280;7755;52.208;6.964;2023-08-07T08:07:36;100846.06;;;17.31;100.00
15308;BME280;7755;52.208;6.964;2023-08-07T08:11:40;100847.63;;;17.53;100.00
15308;BME280;7755;52.208;6.964;2023-08-07T08:15:45;100842.38;;;17.61;100.00
15308;BME280;7755;52.208;6.964;2023-08-07T08:19:48;100852.59;;;17.51;100.00
15308;BME280;7755;52.208;6.964;2023-08-07T08:23:54;100860.34;;;17.38;100.00
15308;BME280;7755;52.208;6.964;2023-08-07T08:27:57;100864.78;;;17.29;100.00
15308;BME280;7755;52.208;6.964;2023-08-07T08:32:02;100870.28;;;17.34;100.00
15308;BME280;7755;52.208;6.964;2023-08-07T08:36:07;100879.81;;;17.47;100.00
15308;BME280;7755;52.208;6.964;2023-08-07T08:40:10;100877.84;;;17.58;100.00
15308;BME280;7755;52.208;6.964;2023-08-07T08:44:19;100868.75;;;17.62;100.00
15308;BME280;7755;52.208;6.964;2023-08-07T08:48:24;100882.13;;;17.84;100.00
15308;BME280;7755;52.208;6.964;2023-08-07T08:52:28;100919.97;;;17.48;100.00
15308;BME280;7755;52.208;6.964;2023-08-07T08:56:31;100916.53;;;16.97;100.00
15308;BME280;7755;52.208;6.964;2023-08-07T09:00:35;100923.41;;;16.89;100.00
15308;BME280;7755;52.208;6.964;2023-08-07T09:04:40;100916.50;;;17.07;100.00
15308;BME280;7755;52.208;6.964;2023-08-07T09:08:44;100920.28;;;17.31;100.00
15308;BME280;7755;52.208;6.964;2023-08-07T09:12:53;100916.91;;;17.50;100.00
15308;BME280;7755;52.208;6.964;2023-08-07T09:16:58;100932.84;;;18.12;100.00
15308;BME280;7755;52.208;6.964;2023-08-07T09:21:04;100921.06;;;18.75;99.65
15308;BME280;7755;52.208;6.964;2023-08-07T09:25:08;100916.03;;;19.11;93.82
15308;BME280;7755;52.208;6.964;2023-08-07T09:29:12;100922.34;;;19.35;91.57
15308;BME280;7755;52.208;6.964;2023-08-07T09:33:24;100933.22;;;19.75;92.25
15308;BME280;7755;52.208;6.964;2023-08-07T09:37:28;100922.09;;;19.80;88.75
15308;BME280;7755;52.208;6.964;2023-08-07T09:41:31;100924.81;;;19.37;89.86
15308;BME280;7755;52.208;6.964;2023-08-07T09:45:40;100940.41;;;18.99;96.75
15308;BME280;7755;52.208;6.964;2023-08-07T09:49:45;100943.34;;;18.05;100.00
15308;BME280;7755;52.208;6.964;2023-08-07T09:53:50;100946.50;;;17.78;100.00
15308;BME280;7755;52.208;6.964;2023-08-07T09:57:53;100946.28;;;18.19;100.00
15308;BME280;7755;52.208;6.964;2023-08-07T10:01:56;100933.78;;;18.71;100.00
15308;BME280;7755;52.208;6.964;2023-08-07T10:06:01;100946.28;;;19.16;100.00
15308;BME280;7755;52.208;6.964;2023-08-07T10:10:07;100945.75;;;19.14;93.73
15308;BME280;7755;52.208;6.964;2023-08-07T10:14:12;100943.94;;;19.04;94.51
15308;BME280;7755;52.208;6.964;2023-08-07T10:18:17;100948.84;;;18.84;85.42
15308;BME280;7755;52.208;6.964;2023-08-07T10:22:25;100963.69;;;18.82;78.19
15308;BME280;7755;52.208;6.964;2023-08-07T10:26:30;100972.03;;;19.30;76.80
15308;BME280;7755;52.208;6.964;2023-08-07T10:30:37;100962.03;;;19.63;73.75
15308;BME280;7755;52.208;6.964;2023-08-07T10:34:40;100973.78;;;19.21;75.08
15308;BME280;7755;52.208;6.964;2023-08-07T10:38:44;100982.22;;;18.77;76.60
15308;BME280;7755;52.208;6.964;2023-08-07T10:42:55;100986.06;;;18.76;73.86
15308;BME280;7755;52.208;6.964;2023-08-07T10:47:00;100982.94;;;19.17;69.97
15308;BME280;7755;52.208;6.964;2023-08-07T10:51:04;100981.63;;;19.62;66.82
15308;BME280;7755;52.208;6.964;2023-08-07T10:55:13;100979.78;;;20.00;65.26
15308;BME280;7755;52.208;6.964;2023-08-07T10:59:17;100977.41;;;20.12;63.10
15308;BME280;7755;52.208;6.964;2023-08-07T11:03:26;100997.91;;;19.63;62.48
15308;BME280;7755;52.208;6.964;2023-08-07T11:07:30;101000.06;;;19.14;64.63
15308;BME280;7755;52.208;6.964;2023-08-07T11:11:36;101005.28;;;18.86;67.18
15308;BME280;7755;52.208;6.964;2023-08-07T11:15:43;101014.84;;;18.94;67.73
15308;BME280;7755;52.208;6.964;2023-08-07T11:19:47;101037.31;;;18.77;70.22
15308;BME280;7755;52.208;6.964;2023-08-07T11:23:50;101059.41;;;18.12;74.82
15308;BME280;7755;52.208;6.964;2023-08-07T11:27:54;101042.13;;;18.01;75.99
15308;BME280;7755;52.208;6.964;2023-08-07T11:31:58;101044.19;;;18.30;74.92
15308;BME280;7755;52.208;6.964;2023-08-07T11:36:02;101038.72;;;18.69;73.55
15308;BME280;7755;52.208;6.964;2023-08-07T11:40:06;101038.31;;;19.20;72.36
15308;BME280;7755;52.208;6.964;2023-08-07T11:44:10;101028.34;;;19.53;67.88
15308;BME280;7755;52.208;6.964;2023-08-07T11:48:15;101030.25;;;19.82;68.32
15308;BME280;7755;52.208;6.964;2023-08-07T11:52:28;101024.41;;;19.83;66.27
15308;BME280;7755;52.208;6.964;2023-08-07T11:56:31;101031.03;;;20.25;67.25
15308;BME280;7755;52.208;6.964;2023-08-07T12:00:34;101031.50;;;20.13;67.15
15308;BME280;7755;52.208;6.964;2023-08-07T12:04:38;101041.00;;;20.26;65.34
15308;BME280;7755;52.208;6.964;2023-08-07T12:08:42;101054.34;;;20.19;62.42
15308;BME280;7755;52.208;6.964;2023-08-07T12:12:45;101053.75;;;20.22;63.28
15308;BME280;7755;52.208;6.964;2023-08-07T12:16:49;101041.22;;;19.87;61.63
15308;BME280;7755;52.208;6.964;2023-08-07T12:20:52;101043.63;;;19.70;64.11
15308;BME280;7755;52.208;6.964;2023-08-07T12:24:57;101045.81;;;19.73;66.84
15308;BME280;7755;52.208;6.964;2023-08-07T12:29:00;101053.66;;;19.60;66.75
15308;BME280;7755;52.208;6.964;2023-08-07T12:33:03;101057.25;;;19.61;68.37
15308;BME280;7755;52.208;6.964;2023-08-07T12:37:08;101052.53;;;19.61;67.60
15308;BME280;7755;52.208;6.964;2023-08-07T12:41:12;101057.75;;;19.63;68.43
15308;BME280;7755;52.208;6.964;2023-08-07T12:45:19;101059.66;;;19.92;66.40
15308;BME280;7755;52.208;6.964;2023-08-07T12:49:42;101057.13;;;19.95;64.51
15308;BME280;7755;52.208;6.964;2023-08-07T12:53:47;101055.56;;;19.65;66.94
15308;BME280;7755;52.208;6.964;2023-08-07T12:57:54;101060.34;;;19.49;68.50
15308;BME280;7755;52.208;6.964;2023-08-07T13:01:57;101064.81;;;19.98;62.29
15308;BME280;7755;52.208;6.964;2023-08-07T13:06:00;101066.50;;;20.61;60.78
15308;BME280;7755;52.208;6.964;2023-08-07T13:10:09;101065.25;;;21.05;57.58
15308;BME280;7755;52.208;6.964;2023-08-07T13:14:14;101058.59;;;21.38;55.73
15308;BME280;7755;52.208;6.964;2023-08-07T13:18:17;101049.31;;;21.62;53.40
15308;BME280;7755;52.208;6.964;2023-08-07T13:22:21;101067.66;;;21.58;53.23
15308;BME280;7755;52.208;6.964;2023-08-07T13:26:26;101062.59;;;21.13;53.12
15308;BME280;7755;52.208;6.964;2023-08-07T13:30:30;101063.88;;;20.69;55.02
15308;BME280;7755;52.208;6.964;2023-08-07T13:34:38;101055.56;;;20.88;55.31
15308;BME280;7755;52.208;6.964;2023-08-07T13:38:41;101073.03;;;21.03;55.05
15308;BME280;7755;52.208;6.964;2023-08-07T13:42:48;101057.66;;;20.78;54.44
15308;BME280;7755;52.208;6.964;2023-08-07T13:46:52;101071.41;;;20.83;54.96
15308;BME280;7755;52.208;6.964;2023-08-07T13:50:55;101080.13;;;20.71;55.11
15308;BME280;7755;52.208;6.964;2023-08-07T13:54:59;101075.66;;;20.56;54.56
15308;BME280;7755;52.208;6.964;2023-08-07T13:59:02;101062.81;;;20.84;57.08
15308;BME280;7755;52.208;6.964;2023-08-07T14:03:08;101088.22;;;21.19;56.30
15308;BME280;7755;52.208;6.964;2023-08-07T14:07:12;101071.56;;;21.24;53.85
15308;BME280;7755;52.208;6.964;2023-08-07T14:11:16;101084.97;;;20.98;54.36
15308;BME280;7755;52.208;6.964;2023-08-07T14:15:22;101087.59;;;21.08;54.48
15308;BME280;7755;52.208;6.964;2023-08-07T14:19:28;101076.97;;;21.15;54.64
15308;BME280;7755;52.208;6.964;2023-08-07T14:23:32;101088.63;;;21.45;55.21
15308;BME280;7755;52.208;6.964;2023-08-07T14:27:35;101091.91;;;21.14;54.31
15308;BME280;7755;52.208;6.964;2023-08-07T14:31:39;101104.13;;;20.94;55.50
15308;BME280;7755;52.208;6.964;2023-08-07T14:35:44;101105.78;;;20.34;56.05
15308;BME280;7755;52.208;6.964;2023-08-07T14:39:47;101096.22;;;20.26;58.12
15308;BME280;7755;52.208;6.964;2023-08-07T14:43:50;101093.09;;;20.33;57.66
15308;BME280;7755;52.208;6.964;2023-08-07T14:47:53;101094.25;;;20.69;59.44
15308;BME280;7755;52.208;6.964;2023-08-07T14:51:57;101098.72;;;21.03;58.36
15308;BME280;7755;52.208;6.964;2023-08-07T14:56:01;101095.66;;;21.05;56.37
15308;BME280;7755;52.208;6.964;2023-08-07T15:00:05;101098.44;;;20.86;55.90
15308;BME280;7755;52.208;6.964;2023-08-07T15:04:10;101099.41;;;20.76;54.03
15308;BME280;7755;52.208;6.964;2023-08-07T15:08:15;101114.59;;;20.60;53.68
15308;BME280;7755;52.208;6.964;2023-08-07T15:12:18;101120.94;;;20.60;53.44
15308;BME280;7755;52.208;6.964;2023-08-07T15:16:21;101127.34;;;20.32;54.90
15308;BME280;7755;52.208;6.964;2023-08-07T15:20:25;101135.13;;;20.06;56.25
15308;BME280;7755;52.208;6.964;2023-08-07T15:24:30;101122.34;;;20.10;57.73
15308;BME280;7755;52.208;6.964;2023-08-07T15:28:33;101130.66;;;20.10;58.32
15308;BME280;7755;52.208;6.964;2023-08-07T15:32:36;101125.81;;;19.97;57.62
15308;BME280;7755;52.208;6.964;2023-08-07T15:36:40;101136.72;;;19.83;57.71
15308;BME280;7755;52.208;6.964;2023-08-07T15:40:44;101157.22;;;19.77;58.09
15308;BME280;7755;52.208;6.964;2023-08-07T15:44:47;101151.97;;;19.46;56.02
15308;BME280;7755;52.208;6.964;2023-08-07T15:48:50;101154.44;;;19.48;57.37
15308;BME280;7755;52.208;6.964;2023-08-07T15:52:53;101160.13;;;19.56;57.71
15308;BME280;7755;52.208;6.964;2023-08-07T15:57:08;101136.72;;;19.83;58.67
15308;BME280;7755;52.208;6.964;2023-08-07T16:01:12;101136.94;;;19.92;56.07
15308;BME280;7755;52.208;6.964;2023-08-07T16:05:15;101152.16;;;19.55;53.27
15308;BME280;7755;52.208;6.964;2023-08-07T16:09:18;101146.84;;;19.63;54.64
15308;BME280;7755;52.208;6.964;2023-08-07T16:13:23;101153.09;;;19.74;54.27
15308;BME280;7755;52.208;6.964;2023-08-07T16:17:27;101160.19;;;19.51;54.75
15308;BME280;7755;52.208;6.964;2023-08-07T16:21:31;101169.19;;;19.28;56.34
15308;BME280;7755;52.208;6.964;2023-08-07T16:25:34;101158.97;;;19.33;57.34
15308;BME280;7755;52.208;6.964;2023-08-07T16:29:38;101164.53;;;19.23;57.52
15308;BME280;7755;52.208;6.964;2023-08-07T16:33:42;101155.78;;;19.16;57.35
15308;BME280;7755;52.208;6.964;2023-08-07T16:37:45;101159.03;;;19.23;58.69
15308;BME280;7755;52.208;6.964;2023-08-07T16:41:49;101158.09;;;19.38;59.14
15308;BME280;7755;52.208;6.964;2023-08-07T16:45:55;101162.38;;;19.54;58.62
15308;BME280;7755;52.208;6.964;2023-08-07T16:49:59;101169.22;;;19.57;57.30
15308;BME280;7755;52.208;6.964;2023-08-07T16:54:04;101163.28;;;19.45;55.82
15308;BME280;7755;52.208;6.964;2023-08-07T16:58:08;101162.06;;;19.22;57.84
15308;BME280;7755;52.208;6.964;2023-08-07T17:02:13;101168.19;;;19.19;58.73
15308;BME280;7755;52.208;6.964;2023-08-07T17:06:18;101156.47;;;18.98;58.00
15308;BME280;7755;52.208;6.964;2023-08-07T17:10:22;101165.31;;;18.90;59.67
15308;BME280;7755;52.208;6.964;2023-08-07T17:14:25;101155.81;;;18.72;60.48
15308;BME280;7755;52.208;6.964;2023-08-07T17:18:30;101149.19;;;18.63;60.94
15308;BME280;7755;52.208;6.964;2023-08-07T17:22:33;101143.16;;;18.61;62.41
15308;BME280;7755;52.208;6.964;2023-08-07T17:26:37;101142.91;;;18.52;62.96
15308;BME280;7755;52.208;6.964;2023-08-07T17:30:40;101149.84;;;18.44;61.60
15308;BME280;7755;52.208;6.964;2023-08-07T17:34:45;101149.34;;;18.27;60.97
15308;BME280;7755;52.208;6.964;2023-08-07T17:38:48;101146.09;;;18.15;60.85
15308;BME280;7755;52.208;6.964;2023-08-07T17:43:07;101138.97;;;18.09;62.70
15308;BME280;7755;52.208;6.964;2023-08-07T17:47:11;101139.81;;;18.04;64.18
15308;BME280;7755;52.208;6.964;2023-08-07T17:51:18;101136.81;;;17.90;65.08
15308;BME280;7755;52.208;6.964;2023-08-07T17:55:27;101136.28;;;17.88;65.83
15308;BME280;7755;52.208;6.964;2023-08-07T17:59:32;101129.97;;;17.78;65.21
15308;BME280;7755;52.208;6.964;2023-08-07T18:03:35;101125.00;;;17.64;64.82
15308;BME280;7755;52.208;6.964;2023-08-07T18:07:39;101125.88;;;17.55;64.19
15308;BME280;7755;52.208;6.964;2023-08-07T18:11:42;101123.66;;;17.46;64.40
15308;BME280;7755;52.208;6.964;2023-08-07T18:15:46;101120.38;;;17.29;65.55
15308;BME280;7755;52.208;6.964;2023-08-07T18:19:51;101118.44;;;17.19;65.40
15308;BME280;7755;52.208;6.964;2023-08-07T18:23:55;101122.28;;;17.08;66.63
15308;BME280;7755;52.208;6.964;2023-08-07T18:27:59;101125.88;;;17.14;67.76
15308;BME280;7755;52.208;6.964;2023-08-07T18:32:03;101122.28;;;17.08;68.16
15308;BME280;7755;52.208;6.964;2023-08-07T18:36:06;101127.47;;;17.00;68.85
15308;BME280;7755;52.208;6.964;2023-08-07T18:40:24;101134.09;;;16.94;69.76
15308;BME280;7755;52.208;6.964;2023-08-07T18:44:34;101138.19;;;16.86;70.56
15308;BME280;7755;52.208;6.964;2023-08-07T18:48:38;101125.53;;;16.75;70.91
15308;BME280;7755;52.208;6.964;2023-08-07T18:52:41;101131.25;;;16.68;72.02
15308;BME280;7755;52.208;6.964;2023-08-07T18:56:46;101121.91;;;16.64;72.10
15308;BME280;7755;52.208;6.964;2023-08-07T19:00:50;101122.47;;;16.61;73.27
15308;BME280;7755;52.208;6.964;2023-08-07T19:04:54;101121.59;;;16.55;74.13
15308;BME280;7755;52.208;6.964;2023-08-07T19:09:00;101123.00;;;16.53;74.85
15308;BME280;7755;52.208;6.964;2023-08-07T19:13:05;101116.34;;;16.44;75.49
15308;BME280;7755;52.208;6.964;2023-08-07T19:17:08;101116.88;;;16.35;76.37
15308;BME280;7755;52.208;6.964;2023-08-07T19:21:11;101125.91;;;16.31;77.04
15308;BME280;7755;52.208;6.964;2023-08-07T19:25:14;101117.69;;;16.26;77.61
15308;BME280;7755;52.208;6.964;2023-08-07T19:29:18;101120.63;;;16.14;78.57
15308;BME280;7755;52.208;6.964;2023-08-07T19:33:23;101125.28;;;16.08;79.87
15308;BME280;7755;52.208;6.964;2023-08-07T19:37:26;101120.06;;;16.07;80.75
15308;BME280;7755;52.208;6.964;2023-08-07T19:41:29;101118.38;;;16.01;81.40
15308;BME280;7755;52.208;6.964;2023-08-07T19:45:34;101108.97;;;15.92;82.36
15308;BME280;7755;52.208;6.964;2023-08-07T19:49:36;101114.97;;;15.78;83.59
15308;BME280;7755;52.208;6.964;2023-08-07T19:53:40;101104.25;;;15.72;84.48
15308;BME280;7755;52.208;6.964;2023-08-07T19:58:00;101111.59;;;15.66;85.54
15308;BME280;7755;52.208;6.964;2023-08-07T20:02:08;101115.63;;;15.59;86.51
15308;BME280;7755;52.208;6.964;2023-08-07T20:06:11;101113.94;;;15.52;87.41
15308;BME280;7755;52.208;6.964;2023-08-07T20:10:15;101107.03;;;15.45;88.40
15308;BME280;7755;52.208;6.964;2023-08-07T20:14:24;101101.78;;;15.38;89.52
15308;BME280;7755;52.208;6.964;2023-08-07T20:18:29;101105.81;;;15.30;91.16
15308;BME280;7755;52.208;6.964;2023-08-07T20:22:32;101099.72;;;15.23;93.32
15308;BME280;7755;52.208;6.964;2023-08-07T20:26:36;101089.25;;;15.15;95.00
15308;BME280;7755;52.208;6.964;2023-08-07T20:30:39;101084.06;;;15.14;96.59
15308;BME280;7755;52.208;6.964;2023-08-07T20:34:44;101082.63;;;15.06;98.08
15308;BME280;7755;52.208;6.964;2023-08-07T20:38:47;101090.22;;;14.99;99.66
15308;BME280;7755;52.208;6.964;2023-08-07T20:42:50;101094.28;;;14.91;100.00
15308;BME280;7755;52.208;6.964;2023-08-07T20:46:54;101079.72;;;14.86;100.00
15308;BME280;7755;52.208;6.964;2023-08-07T20:50:59;101090.94;;;14.84;100.00
15308;BME280;7755;52.208;6.964;2023-08-07T20:55:02;101093.66;;;14.84;100.00
15308;BME280;7755;52.208;6.964;2023-08-07T20:59:05;101080.75;;;14.80;100.00
15308;BME280;7755;52.208;6.964;2023-08-07T21:03:08;101082.66;;;14.79;100.00
15308;BME280;7755;52.208;6.964;2023-08-07T21:07:13;101071.44;;;14.81;100.00
15308;BME280;7755;52.208;6.964;2023-08-07T21:11:16;101073.03;;;14.77;100.00
15308;BME280;7755;52.208;6.964;2023-08-07T21:15:20;101061.53;;;14.74;100.00
15308;BME280;7755;52.208;6.964;2023-08-07T21:19:23;101062.56;;;14.68;100.00
15308;BME280;7755;52.208;6.964;2023-08-07T21:23:28;101060.91;;;14.67;100.00
15308;BME280;7755;52.208;6.964;2023-08-07T21:27:31;101070.78;;;14.68;100.00
15308;BME280;7755;52.208;6.964;2023-08-07T21:31:34;101059.00;;;14.68;100.00